Time;durP1;ratioP1;P1;durP2;ratioP2;P2;SDS_P1;SDS_P2;PMS_P1;PMS_P2;Temp;Humidity;BMP_temperature;BMP_pressure;BME280_temperature;BME280_humidity;BME280_pressure;Samples;Min_cycle;Max_cycle;Signal;HPM_P1;HPM_P2
2021/07/23 00:00:28;;;;;;;34.78;24.92;;;17.20;99.90;;;;;;2047767;28;20035;-74
2021/07/23 00:01:29;;;;;;;35.45;24.92;;;17.20;99.90;;;;;;2048284;28;20032;-74
2021/07/23 00:02:30;;;;;;;34.63;24.73;;;17.20;99.90;;;;;;2048063;29;20683;-74
2021/07/23 00:03:30;;;;;;;35.80;24.15;;;17.20;99.90;;;;;;2048072;29;20485;-73
2021/07/23 00:04:32;;;;;;;35.85;24.77;;;17.20;99.90;;;;;;2047557;29;20058;-74
2021/07/23 00:05:33;;;;;;;34.35;24.45;;;17.10;99.90;;;;;;2047610;29;20039;-74
2021/07/23 00:06:33;;;;;;;34.78;24.42;;;17.10;99.90;;;;;;2048224;29;20106;-73
2021/07/23 00:07:34;;;;;;;34.03;24.35;;;17.10;99.90;;;;;;2048253;29;20029;-74
2021/07/23 00:08:34;;;;;;;33.25;22.85;;;17.10;99.90;;;;;;2048455;29;20023;-74
2021/07/23 00:09:35;;;;;;;32.67;22.65;;;17.00;99.90;;;;;;2048333;29;20032;-71
2021/07/23 00:10:35;;;;;;;31.02;21.40;;;17.00;99.90;;;;;;2047630;28;20047;-74
2021/07/23 00:11:36;;;;;;;32.83;21.40;;;17.00;99.90;;;;;;2048360;29;20035;-74
2021/07/23 00:12:37;;;;;;;30.02;21.30;;;17.00;99.90;;;;;;2048439;28;20555;-74
2021/07/23 00:13:37;;;;;;;29.80;21.13;;;17.00;99.90;;;;;;2048417;29;20390;-73
2021/07/23 00:14:38;;;;;;;30.63;21.38;;;17.00;99.90;;;;;;2048501;29;20031;-74
2021/07/23 00:15:38;;;;;;;29.52;20.23;;;17.00;99.90;;;;;;2048668;29;20039;-74
2021/07/23 00:16:39;;;;;;;29.27;20.23;;;17.00;99.90;;;;;;2048530;29;20094;-74
2021/07/23 00:17:40;;;;;;;29.02;19.85;;;17.00;99.90;;;;;;2048445;28;20475;-73
2021/07/23 00:18:41;;;;;;;27.95;19.52;;;16.90;99.90;;;;;;2047602;29;20797;-74
2021/07/23 00:19:41;;;;;;;29.80;19.42;;;17.00;99.90;;;;;;2047729;29;20047;-74
2021/07/23 00:20:42;;;;;;;27.88;19.70;;;17.00;99.90;;;;;;2047906;28;20380;-74
2021/07/23 00:21:42;;;;;;;29.65;20.42;;;17.00;99.90;;;;;;2048410;29;20028;-73
2021/07/23 00:22:43;;;;;;;28.58;19.42;;;16.90;99.90;;;;;;2048491;28;20063;-75
2021/07/23 00:23:44;;;;;;;27.60;19.30;;;16.90;99.90;;;;;;2048402;29;20023;-73
2021/07/23 00:24:44;;;;;;;28.15;19.52;;;16.90;99.90;;;;;;2048270;29;20106;-74
2021/07/23 00:25:45;;;;;;;30.63;20.42;;;16.90;99.90;;;;;;2047556;29;20032;-73
2021/07/23 00:26:52;;;;;;;28.10;19.45;;;17.00;99.90;;;;;;2047759;29;20039;-73
2021/07/23 00:27:53;;;;;;;29.83;19.48;;;16.90;99.90;;;;;;2048375;29;20082;-73
2021/07/23 00:28:54;;;;;;;28.70;19.90;;;16.90;99.90;;;;;;2048485;29;20226;-72
2021/07/23 00:29:54;;;;;;;29.90;20.63;;;17.00;99.90;;;;;;2048248;28;20031;-73
2021/07/23 00:30:56;;;;;;;26.90;18.90;;;17.00;99.90;;;;;;2047464;29;20019;-74
2021/07/23 00:31:56;;;;;;;28.13;20.00;;;17.00;99.90;;;;;;2048199;28;20062;-74
2021/07/23 00:32:58;;;;;;;28.35;19.50;;;17.00;99.90;;;;;;2048066;28;20619;-74
2021/07/23 00:33:59;;;;;;;27.30;19.33;;;17.10;99.90;;;;;;2048186;29;20032;-73
2021/07/23 00:35:00;;;;;;;27.35;19.20;;;17.10;99.90;;;;;;2048177;29;20035;-73
2021/07/23 00:36:01;;;;;;;28.88;20.15;;;17.10;99.90;;;;;;2048053;28;20481;-73
2021/07/23 00:37:02;;;;;;;27.65;19.17;;;17.20;99.90;;;;;;2048224;29;20023;-73
2021/07/23 00:38:03;;;;;;;26.95;19.05;;;17.20;99.90;;;;;;2048279;29;20093;-73
2021/07/23 00:39:05;;;;;;;28.50;19.55;;;17.20;99.90;;;;;;2047840;29;20027;-73
2021/07/23 00:40:08;;;;;;;28.33;19.38;;;17.20;99.90;;;;;;2047612;29;20729;-73
2021/07/23 00:41:08;;;;;;;27.08;19.10;;;17.20;99.90;;;;;;2046982;29;20036;-73
2021/07/23 00:42:09;;;;;;;29.83;20.17;;;17.30;99.90;;;;;;2048250;29;20055;-73
2021/07/23 00:43:10;;;;;;;26.60;19.15;;;17.30;99.90;;;;;;2047950;29;20483;-73
2021/07/23 00:44:12;;;;;;;27.20;19.20;;;17.30;99.90;;;;;;2048190;29;20038;-73
2021/07/23 00:45:13;;;;;;;28.05;19.52;;;17.30;99.90;;;;;;2048225;28;20033;-73
2021/07/23 00:46:14;;;;;;;28.05;19.02;;;17.30;99.90;;;;;;2049333;29;20074;-73
2021/07/23 00:47:20;;;;;;;27.75;18.80;;;17.30;99.90;;;;;;2049113;29;20118;-73
2021/07/23 00:48:22;;;;;;;26.65;19.20;;;17.30;99.90;;;;;;2041745;29;20032;-73
2021/07/23 00:49:23;;;;;;;26.23;18.63;;;17.30;99.90;;;;;;2049333;29;20600;-73
2021/07/23 00:50:24;;;;;;;25.15;18.63;;;17.30;99.90;;;;;;2048797;29;20035;-73
2021/07/23 00:51:26;;;;;;;26.13;18.67;;;17.30;99.90;;;;;;2041424;29;20058;-73
2021/07/23 00:52:27;;;;;;;26.42;18.08;;;17.30;99.90;;;;;;2041288;29;20145;-73
2021/07/23 00:53:28;;;;;;;24.13;17.45;;;17.30;99.90;;;;;;2049276;29;20023;-73
2021/07/23 00:54:29;;;;;;;28.27;18.13;;;17.30;99.90;;;;;;2049673;29;20030;-73
2021/07/23 00:55:30;;;;;;;27.25;18.55;;;17.30;99.90;;;;;;2049657;28;20114;-73
2021/07/23 00:56:31;;;;;;;24.58;18.55;;;17.30;99.90;;;;;;2049616;29;20082;-73
2021/07/23 00:57:32;;;;;;;26.70;18.75;;;17.30;99.90;;;;;;2049642;29;20384;-73
2021/07/23 00:58:33;;;;;;;24.73;18.65;;;17.30;99.90;;;;;;2048908;29;20047;-73
2021/07/23 00:59:34;;;;;;;25.67;18.58;;;17.30;99.90;;;;;;2040962;29;20034;-73
2021/07/23 01:00:36;;;;;;;26.20;18.95;;;17.30;99.90;;;;;;2048386;29;20028;-73
2021/07/23 01:01:39;;;;;;;27.05;18.20;;;17.30;99.90;;;;;;2049748;29;20035;-73
2021/07/23 01:02:40;;;;;;;27.05;18.17;;;17.30;99.90;;;;;;2049564;29;20077;-73
2021/07/23 01:03:42;;;;;;;26.85;18.20;;;17.30;99.90;;;;;;2048698;29;20143;-73
2021/07/23 01:04:45;;;;;;;26.40;18.48;;;17.30;99.90;;;;;;2041340;29;20027;-73
2021/07/23 01:05:50;;;;;;;27.95;18.67;;;17.30;99.90;;;;;;2041167;29;20032;-73
2021/07/23 01:06:51;;;;;;;26.77;18.92;;;17.20;99.90;;;;;;2041468;29;20027;-73
2021/07/23 01:07:53;;;;;;;23.30;17.73;;;17.20;99.90;;;;;;2041315;29;20032;-73
2021/07/23 01:08:54;;;;;;;23.83;18.15;;;17.30;99.90;;;;;;2048853;29;20019;-73
2021/07/23 01:10:00;;;;;;;25.25;18.50;;;17.30;99.90;;;;;;2048720;29;20027;-73
2021/07/23 01:11:19;;;;;;;27.73;18.80;;;17.30;99.90;;;;;;2048507;29;20043;-73
2021/07/23 01:12:48;;;;;;;25.50;18.55;;;17.30;99.90;;;;;;2048725;29;20078;-73
2021/07/23 01:13:49;;;;;;;24.33;17.67;;;17.30;99.90;;;;;;2048530;29;20038;-73
2021/07/23 01:14:50;;;;;;;26.98;19.00;;;17.30;99.90;;;;;;2049054;29;20059;-73
2021/07/23 01:15:51;;;;;;;24.63;18.42;;;17.30;99.90;;;;;;2049014;28;20114;-73
2021/07/23 01:16:53;;;;;;;26.95;19.25;;;17.30;99.90;;;;;;2041418;29;20028;-73
2021/07/23 01:17:56;;;;;;;27.38;18.85;;;17.30;99.90;;;;;;2041453;29;20036;-73
2021/07/23 01:18:56;;;;;;;25.38;18.10;;;17.30;99.90;;;;;;2049128;29;20530;-73
2021/07/23 01:20:06;;;;;;;28.52;19.45;;;17.30;99.90;;;;;;2049721;28;20031;-73
2021/07/23 01:21:09;;;;;;;27.13;18.55;;;17.30;99.90;;;;;;2048139;29;20138;-74
2021/07/23 01:22:11;;;;;;;27.80;18.88;;;17.30;99.90;;;;;;2048682;29;20111;-73
2021/07/23 01:23:25;;;;;;;27.52;19.10;;;17.30;99.90;;;;;;2048529;29;20023;-73
2021/07/23 01:24:27;;;;;;;26.52;18.70;;;17.30;99.90;;;;;;2048949;29;20031;-73
2021/07/23 01:25:28;;;;;;;26.25;18.23;;;17.30;99.90;;;;;;2049403;29;20102;-73
2021/07/23 01:26:29;;;;;;;26.15;18.75;;;17.30;99.90;;;;;;2048818;29;20031;-73
2021/07/23 01:27:34;;;;;;;26.50;18.15;;;17.30;99.90;;;;;;2040870;29;20055;-73
2021/07/23 01:28:38;;;;;;;26.23;18.58;;;17.30;99.90;;;;;;2048853;29;20391;-73
2021/07/23 01:29:45;;;;;;;26.42;18.50;;;17.30;99.90;;;;;;2049491;29;20023;-73
2021/07/23 01:30:47;;;;;;;26.50;18.38;;;17.30;99.90;;;;;;2047940;29;20083;-73
2021/07/23 01:31:52;;;;;;;26.58;18.45;;;17.30;99.90;;;;;;2048665;29;20031;-73
2021/07/23 01:32:54;;;;;;;25.50;18.63;;;17.30;99.90;;;;;;2048375;29;20027;-73
2021/07/23 01:33:55;;;;;;;26.63;18.15;;;17.30;99.90;;;;;;2048425;29;20025;-73
2021/07/23 01:34:57;;;;;;;25.30;17.92;;;17.30;99.90;;;;;;2048667;29;20504;-74
2021/07/23 01:35:58;;;;;;;25.67;18.83;;;17.30;99.90;;;;;;2048588;29;20031;-73
2021/07/23 01:36:59;;;;;;;25.85;18.90;;;17.30;99.90;;;;;;2048742;29;20031;-73
2021/07/23 01:38:02;;;;;;;27.92;19.35;;;17.30;99.90;;;;;;2048816;29;20880;-73
2021/07/23 01:39:05;;;;;;;25.80;18.40;;;17.30;99.90;;;;;;2048804;29;20034;-73
2021/07/23 01:40:08;;;;;;;26.00;18.38;;;17.30;99.90;;;;;;2048871;29;20034;-73
2021/07/23 01:41:10;;;;;;;26.27;18.35;;;17.30;99.90;;;;;;2048109;29;20632;-73
2021/07/23 01:42:10;;;;;;;25.27;18.27;;;17.30;99.90;;;;;;2040538;29;20063;-73
2021/07/23 01:43:16;;;;;;;24.23;18.38;;;17.30;99.90;;;;;;2040959;29;20024;-73
2021/07/23 01:44:16;;;;;;;27.95;19.05;;;17.30;99.90;;;;;;2048801;29;20031;-73
2021/07/23 01:45:19;;;;;;;25.15;18.77;;;17.40;99.90;;;;;;2049400;29;20489;-73
2021/07/23 01:46:39;;;;;;;25.05;18.45;;;17.30;99.90;;;;;;2049259;29;20031;-73
2021/07/23 01:47:45;;;;;;;24.90;18.60;;;17.30;99.90;;;;;;2048664;29;20039;-73
2021/07/23 01:48:47;;;;;;;28.02;19.75;;;17.30;99.90;;;;;;2040786;29;20527;-73
2021/07/23 01:50:14;;;;;;;28.30;19.40;;;17.30;99.90;;;;;;2046709;29;20039;-73
2021/07/23 01:51:14;;;;;;;29.23;20.95;;;17.30;99.90;;;;;;2047507;29;20023;-73
2021/07/23 01:52:15;;;;;;;28.00;19.83;;;17.30;99.90;;;;;;2048584;29;20491;-73
2021/07/23 01:53:20;;;;;;;27.98;20.15;;;17.30;99.90;;;;;;2048286;29;20115;-73
2021/07/23 01:54:33;;;;;;;26.50;19.17;;;17.30;99.90;;;;;;2048658;29;20021;-73
2021/07/23 01:55:33;;;;;;;26.02;19.23;;;17.30;99.90;;;;;;2049222;29;20042;-74
2021/07/23 01:56:34;;;;;;;26.38;19.42;;;17.30;99.90;;;;;;2049030;29;20566;-74
2021/07/23 01:57:41;;;;;;;25.92;18.95;;;17.30;99.90;;;;;;2047347;28;20035;-73
2021/07/23 01:58:42;;;;;;;23.52;17.95;;;17.30;99.90;;;;;;2048620;29;20031;-73
2021/07/23 01:59:43;;;;;;;24.85;18.42;;;17.30;99.90;;;;;;2049043;28;20030;-73
2021/07/23 02:00:44;;;;;;;25.40;18.88;;;17.30;99.90;;;;;;2048473;29;20032;-74
2021/07/23 02:01:50;;;;;;;26.42;19.70;;;17.40;99.90;;;;;;2040692;29;20118;-74
2021/07/23 02:03:08;;;;;;;25.90;18.73;;;17.30;99.90;;;;;;2037702;29;20027;-73
2021/07/23 02:04:09;;;;;;;25.63;19.27;;;17.30;99.90;;;;;;2048550;29;20535;-73
2021/07/23 02:05:10;;;;;;;26.58;19.42;;;17.30;99.90;;;;;;2048378;29;20039;-73
2021/07/23 02:06:12;;;;;;;28.23;19.35;;;17.30;99.90;;;;;;2040614;29;20059;-73
2021/07/23 02:07:13;;;;;;;26.25;18.83;;;17.30;99.90;;;;;;2048379;29;20031;-73
2021/07/23 02:08:14;;;;;;;27.27;18.75;;;17.30;99.90;;;;;;2040584;29;20098;-73
2021/07/23 02:09:15;;;;;;;26.42;19.13;;;17.30;99.90;;;;;;2048371;29;20106;-73
2021/07/23 02:10:29;;;;;;;26.45;18.92;;;17.30;99.90;;;;;;2047953;29;20027;-73
2021/07/23 02:11:31;;;;;;;28.13;19.10;;;17.30;99.90;;;;;;2039902;29;20603;-73
2021/07/23 02:12:32;;;;;;;24.90;18.70;;;17.40;99.90;;;;;;2048304;28;20122;-72
2021/07/23 02:13:43;;;;;;;25.30;19.00;;;17.40;99.90;;;;;;2041729;29;20079;-73
2021/07/23 02:14:45;;;;;;;24.75;18.88;;;17.40;99.90;;;;;;2048497;29;20503;-74
2021/07/23 02:15:46;;;;;;;25.42;18.83;;;17.40;99.90;;;;;;2048439;29;20482;-73
2021/07/23 02:16:55;;;;;;;23.70;18.02;;;17.40;99.90;;;;;;2041328;29;20078;-73
2021/07/23 02:17:56;;;;;;;24.17;18.65;;;17.40;99.90;;;;;;2048580;29;20029;-73
2021/07/23 02:19:00;;;;;;;27.10;19.42;;;17.40;99.90;;;;;;2048515;29;20699;-73
2021/07/23 02:20:16;;;;;;;29.50;20.33;;;17.40;99.90;;;;;;2042603;29;20064;-73
2021/07/23 02:21:17;;;;;;;25.63;19.30;;;17.40;99.90;;;;;;2039900;29;20523;-74
2021/07/23 02:22:17;;;;;;;26.85;19.33;;;17.40;99.90;;;;;;2040408;29;20028;-73
2021/07/23 02:23:18;;;;;;;25.77;19.33;;;17.40;99.90;;;;;;2047956;29;20402;-73
2021/07/23 02:24:19;;;;;;;27.45;19.80;;;17.40;99.90;;;;;;2048981;28;20254;-73
2021/07/23 02:25:20;;;;;;;27.58;19.15;;;17.40;99.90;;;;;;2048952;29;20039;-73
2021/07/23 02:26:23;;;;;;;26.80;19.95;;;17.40;99.90;;;;;;2040474;28;20455;-73
2021/07/23 02:27:31;;;;;;;28.10;19.55;;;17.30;99.90;;;;;;2033586;29;20067;-73
2021/07/23 02:28:32;;;;;;;26.55;19.02;;;17.40;99.90;;;;;;2040955;29;20067;-73
2021/07/23 02:29:35;;;;;;;26.60;19.63;;;17.40;99.90;;;;;;2040627;29;20035;-73
2021/07/23 02:30:39;;;;;;;26.30;19.38;;;17.30;99.90;;;;;;2040176;29;20043;-73
2021/07/23 02:31:57;;;;;;;26.75;19.25;;;17.40;99.90;;;;;;2042829;29;20027;-73
2021/07/23 02:32:58;;;;;;;25.05;18.42;;;17.30;99.90;;;;;;2048378;29;20019;-73
2021/07/23 02:33:59;;;;;;;26.23;19.35;;;17.30;99.90;;;;;;2049114;29;20608;-73
2021/07/23 02:35:08;;;;;;;24.33;18.45;;;17.30;99.90;;;;;;2048186;29;20085;-72
2021/07/23 02:36:29;;;;;;;26.08;19.33;;;17.30;99.90;;;;;;2048287;29;20047;-73
2021/07/23 02:37:30;;;;;;;26.45;19.23;;;17.30;99.90;;;;;;2049240;29;20035;-76
2021/07/23 02:38:31;;;;;;;25.23;19.15;;;17.30;99.90;;;;;;2048989;29;20023;-72
2021/07/23 02:39:36;;;;;;;24.83;19.02;;;17.20;99.90;;;;;;2048341;29;20031;-73
2021/07/23 02:40:39;;;;;;;26.45;19.60;;;17.20;99.90;;;;;;2040140;29;20523;-73
2021/07/23 02:41:40;;;;;;;25.10;18.90;;;17.20;99.90;;;;;;2040233;29;20023;-74
2021/07/23 02:42:41;;;;;;;23.33;18.42;;;17.20;99.90;;;;;;2040294;29;20027;-73
2021/07/23 02:43:45;;;;;;;27.17;19.42;;;17.20;99.90;;;;;;2040029;29;20163;-73
2021/07/23 02:44:46;;;;;;;26.58;18.58;;;17.20;99.90;;;;;;2040511;29;20487;-73
2021/07/23 02:45:46;;;;;;;27.88;19.40;;;17.20;99.90;;;;;;2048104;29;20034;-72
2021/07/23 02:46:49;;;;;;;24.63;18.58;;;17.20;99.90;;;;;;2048282;28;20019;-73
2021/07/23 02:47:52;;;;;;;26.02;19.25;;;17.20;99.90;;;;;;2048167;29;20025;-72
2021/07/23 02:48:55;;;;;;;26.17;19.33;;;17.20;99.90;;;;;;2048747;28;20015;-74
2021/07/23 02:50:00;;;;;;;26.10;19.60;;;17.20;99.90;;;;;;2048776;29;20043;-73
2021/07/23 02:51:10;;;;;;;26.15;19.13;;;17.10;99.90;;;;;;2047612;29;20035;-73
2021/07/23 02:52:13;;;;;;;27.63;19.48;;;17.20;99.90;;;;;;2040742;29;20066;-73
2021/07/23 02:53:18;;;;;;;26.70;19.33;;;17.10;99.90;;;;;;2047992;29;20026;-73
2021/07/23 02:54:22;;;;;;;28.02;20.33;;;17.10;99.90;;;;;;2048137;29;20115;-74
2021/07/23 02:55:24;;;;;;;26.70;19.75;;;17.10;99.90;;;;;;2048165;29;20816;-73
2021/07/23 02:56:28;;;;;;;25.58;19.02;;;17.20;99.90;;;;;;2048745;29;20118;-73
2021/07/23 02:57:32;;;;;;;28.70;18.95;;;17.10;99.90;;;;;;2048050;29;20554;-73
2021/07/23 02:58:40;;;;;;;24.50;18.95;;;17.10;99.90;;;;;;2040347;29;20039;-73
2021/07/23 02:59:41;;;;;;;25.52;19.02;;;17.10;99.90;;;;;;2048144;29;20090;-73
2021/07/23 03:00:46;;;;;;;29.08;19.83;;;17.20;99.90;;;;;;2048052;29;20395;-73
2021/07/23 03:01:52;;;;;;;27.10;19.63;;;17.10;99.90;;;;;;2048250;29;20446;-72
2021/07/23 03:03:02;;;;;;;25.65;18.90;;;17.10;99.90;;;;;;2047949;29;20380;-73
2021/07/23 03:04:04;;;;;;;27.13;19.88;;;17.10;99.90;;;;;;2048656;29;20034;-73
2021/07/23 03:05:12;;;;;;;25.73;18.92;;;17.10;99.90;;;;;;2048613;29;20038;-73
2021/07/23 03:06:14;;;;;;;26.42;19.33;;;17.10;99.90;;;;;;2047958;28;20027;-73
2021/07/23 03:07:16;;;;;;;27.50;19.75;;;17.10;99.90;;;;;;2040278;29;20043;-74
2021/07/23 03:08:18;;;;;;;24.35;18.83;;;17.10;99.90;;;;;;2047898;29;20027;-72
2021/07/23 03:09:27;;;;;;;26.95;19.52;;;17.00;99.90;;;;;;2048012;29;20035;-72
2021/07/23 03:10:30;;;;;;;27.63;19.02;;;17.10;99.90;;;;;;2048037;29;20159;-73
2021/07/23 03:11:32;;;;;;;26.85;19.33;;;17.00;99.90;;;;;;2039319;29;20535;-73
2021/07/23 03:12:41;;;;;;;26.38;19.33;;;17.10;99.90;;;;;;2048089;29;20031;-73
2021/07/23 03:13:44;;;;;;;25.90;18.60;;;17.00;99.90;;;;;;2048416;29;20411;-72
2021/07/23 03:14:46;;;;;;;25.65;18.73;;;17.00;99.90;;;;;;2047654;29;20029;-72
2021/07/23 03:15:54;;;;;;;24.55;18.45;;;17.00;99.90;;;;;;2048012;29;20027;-72
2021/07/23 03:16:58;;;;;;;25.17;18.77;;;17.00;99.90;;;;;;2047905;29;20695;-73
2021/07/23 03:18:00;;;;;;;26.25;19.30;;;17.00;99.90;;;;;;2047859;29;20584;-75
2021/07/23 03:19:01;;;;;;;27.60;19.55;;;16.90;99.90;;;;;;2040219;29;20027;-72
2021/07/23 03:20:02;;;;;;;27.33;19.55;;;16.90;99.90;;;;;;2040100;29;20028;-75
2021/07/23 03:21:03;;;;;;;27.25;18.80;;;16.90;99.90;;;;;;2039362;29;20042;-75
2021/07/23 03:22:04;;;;;;;25.10;18.30;;;16.90;99.90;;;;;;2039926;29;20034;-75
2021/07/23 03:23:06;;;;;;;26.73;18.75;;;16.90;99.90;;;;;;2047415;28;20031;-73
2021/07/23 03:24:18;;;;;;;26.95;19.55;;;16.90;99.90;;;;;;2048063;29;20479;-76
2021/07/23 03:25:20;;;;;;;28.20;19.58;;;16.90;99.90;;;;;;2047703;29;20039;-73
2021/07/23 03:26:37;;;;;;;26.08;18.60;;;16.80;99.90;;;;;;2048109;29;20083;-73
2021/07/23 03:27:42;;;;;;;26.58;18.88;;;16.80;99.90;;;;;;2048002;29;20102;-74
2021/07/23 03:28:58;;;;;;;26.08;18.17;;;16.80;99.90;;;;;;2041793;29;20571;-74
2021/07/23 03:30:06;;;;;;;27.70;19.52;;;16.80;99.90;;;;;;2033249;29;20032;-74
2021/07/23 03:31:15;;;;;;;27.33;19.58;;;16.80;99.90;;;;;;2040568;29;20464;-74
2021/07/23 03:32:20;;;;;;;26.25;19.10;;;16.80;99.90;;;;;;2048453;29;20035;-74
2021/07/23 03:33:22;;;;;;;27.13;19.23;;;16.80;99.90;;;;;;2047393;29;20066;-74
2021/07/23 03:34:22;;;;;;;25.25;18.92;;;16.80;99.90;;;;;;2039807;29;20028;-73
2021/07/23 03:35:29;;;;;;;25.25;18.77;;;16.80;99.90;;;;;;2047678;29;20035;-73
2021/07/23 03:36:32;;;;;;;25.70;18.50;;;16.80;99.90;;;;;;2047847;29;20086;-74
2021/07/23 03:37:33;;;;;;;26.95;19.00;;;16.80;99.90;;;;;;2047780;29;20027;-73
2021/07/23 03:38:42;;;;;;;27.67;19.27;;;16.80;99.90;;;;;;2039858;28;20023;-73
2021/07/23 03:39:42;;;;;;;24.35;18.33;;;16.90;99.90;;;;;;2041011;29;20031;-73
2021/07/23 03:40:44;;;;;;;24.92;18.27;;;16.80;99.90;;;;;;2047830;29;20035;-74
2021/07/23 03:41:48;;;;;;;24.85;18.55;;;16.90;99.90;;;;;;2048423;28;20491;-74
2021/07/23 03:42:53;;;;;;;24.55;18.15;;;16.90;99.90;;;;;;2048285;29;20031;-74
2021/07/23 03:43:57;;;;;;;27.40;18.10;;;16.90;99.90;;;;;;2048344;29;20039;-74
2021/07/23 03:45:04;;;;;;;26.95;18.92;;;16.90;99.90;;;;;;2047612;29;20094;-73
2021/07/23 03:46:06;;;;;;;26.10;18.65;;;16.90;99.90;;;;;;2040091;29;20130;-74
2021/07/23 03:47:15;;;;;;;23.90;18.27;;;16.90;99.90;;;;;;2040639;29;20046;-74
2021/07/23 03:48:16;;;;;;;25.35;18.63;;;16.90;99.90;;;;;;2047812;29;20019;-73
2021/07/23 03:49:21;;;;;;;24.25;18.42;;;16.90;99.90;;;;;;2047920;29;20415;-74
2021/07/23 03:50:22;;;;;;;25.52;18.05;;;17.00;99.90;;;;;;2047903;29;20031;-75
2021/07/23 03:51:32;;;;;;;24.80;17.95;;;17.00;99.90;;;;;;2047181;29;20027;-73
2021/07/23 03:52:33;;;;;;;25.98;18.77;;;16.90;99.90;;;;;;2047875;29;20434;-72
2021/07/23 03:53:52;;;;;;;27.70;18.77;;;17.00;99.90;;;;;;2048211;29;20039;-75
2021/07/23 03:54:59;;;;;;;24.45;18.02;;;17.00;99.90;;;;;;2047698;29;20030;-75
2021/07/23 03:56:05;;;;;;;25.33;18.25;;;17.00;99.90;;;;;;2039754;29;20058;-74
2021/07/23 03:57:19;;;;;;;25.58;18.02;;;17.00;99.90;;;;;;2042248;29;20024;-74
2021/07/23 03:58:20;;;;;;;30.30;22.35;;;17.00;99.90;;;;;;2039825;29;20040;-75
2021/07/23 03:59:21;;;;;;;29.20;20.75;;;17.10;99.90;;;;;;2047595;29;20487;-73
2021/07/23 04:00:27;;;;;;;26.60;19.23;;;17.10;99.90;;;;;;2047814;29;20038;-73
2021/07/23 04:01:31;;;;;;;27.55;19.23;;;17.20;99.90;;;;;;2046962;29;20150;-73
2021/07/23 04:02:32;;;;;;;25.70;18.63;;;17.20;99.90;;;;;;2047621;29;20035;-73
2021/07/23 04:03:33;;;;;;;25.70;18.30;;;17.20;99.90;;;;;;2039510;29;20119;-73
2021/07/23 04:04:35;;;;;;;25.92;18.20;;;17.30;99.90;;;;;;2039927;29;20078;-73
2021/07/23 04:05:36;;;;;;;24.63;18.00;;;17.30;99.90;;;;;;2047494;29;20428;-74
2021/07/23 04:06:39;;;;;;;24.65;17.67;;;17.30;99.90;;;;;;2047798;29;20024;-73
2021/07/23 04:07:42;;;;;;;23.67;17.85;;;17.30;99.90;;;;;;2048088;29;20030;-74
2021/07/23 04:08:44;;;;;;;24.42;18.13;;;17.30;99.90;;;;;;2048288;29;20011;-74
2021/07/23 04:09:51;;;;;;;25.52;18.05;;;17.30;99.90;;;;;;2047586;29;20483;-73
2021/07/23 04:10:55;;;;;;;25.77;18.00;;;17.40;99.90;;;;;;2047067;29;20031;-73
2021/07/23 04:11:59;;;;;;;26.25;17.92;;;17.40;99.90;;;;;;2047686;28;20051;-74
2021/07/23 04:13:06;;;;;;;23.85;18.00;;;17.40;99.90;;;;;;2039386;29;20034;-74
2021/07/23 04:14:14;;;;;;;24.38;17.95;;;17.40;99.90;;;;;;2041317;29;20028;-75
2021/07/23 04:15:15;;;;;;;25.10;18.50;;;17.40;99.90;;;;;;2047613;29;20554;-73
2021/07/23 04:16:41;;;;;;;23.95;17.83;;;17.50;99.90;;;;;;2047982;28;20031;-73
2021/07/23 04:17:42;;;;;;;26.90;18.30;;;17.40;99.90;;;;;;2047559;29;20142;-73
2021/07/23 04:18:43;;;;;;;26.17;17.98;;;17.50;99.90;;;;;;2039530;29;20024;-73
2021/07/23 04:20:04;;;;;;;25.63;18.13;;;17.50;99.90;;;;;;2041873;28;20031;-72
2021/07/23 04:21:05;;;;;;;23.40;17.52;;;17.50;99.90;;;;;;2039848;29;20035;-72
2021/07/23 04:22:08;;;;;;;27.77;18.65;;;17.50;99.90;;;;;;2041345;29;20484;-73
2021/07/23 04:23:29;;;;;;;23.63;17.35;;;17.60;99.90;;;;;;2048910;29;20043;-72
2021/07/23 04:24:29;;;;;;;23.08;17.05;;;17.60;99.90;;;;;;2049075;29;20030;-73
2021/07/23 04:25:30;;;;;;;25.85;18.45;;;17.60;99.90;;;;;;2041165;29;20082;-72
2021/07/23 04:26:31;;;;;;;24.42;17.60;;;17.70;99.90;;;;;;2049246;29;20043;-75
2021/07/23 04:27:32;;;;;;;25.67;18.48;;;17.70;99.90;;;;;;2049066;29;20031;-74
2021/07/23 04:28:42;;;;;;;25.17;17.98;;;17.70;99.90;;;;;;2049370;29;20030;-74
2021/07/23 04:29:47;;;;;;;26.17;18.75;;;17.70;99.90;;;;;;2049236;29;20031;-72
2021/07/23 04:30:48;;;;;;;23.50;17.65;;;17.80;99.90;;;;;;2048685;29;20075;-72
2021/07/23 04:31:53;;;;;;;23.02;17.67;;;17.80;99.90;;;;;;2048920;29;20023;-73
2021/07/23 04:32:54;;;;;;;24.05;17.63;;;17.90;99.90;;;;;;2049064;29;20023;-72
2021/07/23 04:33:57;;;;;;;25.60;17.98;;;17.90;99.90;;;;;;2049035;29;20031;-72
2021/07/23 04:35:13;;;;;;;29.77;19.30;;;17.90;99.90;;;;;;2049307;29;20039;-72
2021/07/23 04:36:14;;;;;;;24.02;17.85;;;17.90;99.90;;;;;;2048936;29;20499;-73
2021/07/23 04:37:17;;;;;;;25.08;18.27;;;17.90;99.90;;;;;;2049104;28;20038;-72
2021/07/23 04:38:40;;;;;;;25.77;18.13;;;17.90;99.60;;;;;;2044064;29;20046;-73
2021/07/23 04:39:41;;;;;;;24.80;18.27;;;18.00;99.50;;;;;;2041126;29;20586;-71
2021/07/23 04:40:43;;;;;;;25.27;17.65;;;18.00;99.40;;;;;;2048811;29;20061;-73
2021/07/23 04:41:53;;;;;;;24.42;18.08;;;18.00;99.30;;;;;;2048845;29;20082;-72
2021/07/23 04:42:53;;;;;;;24.02;17.92;;;18.10;99.10;;;;;;2048887;29;20173;-71
2021/07/23 04:43:54;;;;;;;23.38;17.92;;;18.10;99.10;;;;;;2048912;29;20114;-71
2021/07/23 04:44:55;;;;;;;25.08;18.05;;;18.10;98.90;;;;;;2049111;29;20126;-72
2021/07/23 04:45:56;;;;;;;25.17;18.70;;;18.10;98.90;;;;;;2049590;29;20038;-72
2021/07/23 04:47:00;;;;;;;24.95;18.88;;;18.20;98.70;;;;;;2048992;29;20521;-72
2021/07/23 04:48:02;;;;;;;25.88;18.73;;;18.20;98.40;;;;;;2041848;29;20082;-72
2021/07/23 04:49:07;;;;;;;22.98;18.42;;;18.20;98.10;;;;;;2041516;29;20054;-72
2021/07/23 04:50:10;;;;;;;25.95;18.55;;;18.20;98.00;;;;;;2041205;29;20039;-72
2021/07/23 04:51:30;;;;;;;25.77;18.63;;;18.20;97.90;;;;;;2048720;29;20047;-72
2021/07/23 04:52:54;;;;;;;31.05;19.90;;;18.30;97.90;;;;;;2049629;29;20047;-72
2021/07/23 04:54:13;;;;;;;26.90;19.00;;;18.30;97.20;;;;;;2049805;29;20060;-72
2021/07/23 04:55:34;;;;;;;26.10;19.13;;;18.30;97.30;;;;;;2049829;29;20027;-72
2021/07/23 04:56:43;;;;;;;25.80;18.48;;;18.30;97.20;;;;;;2041102;29;20404;-71
2021/07/23 04:57:45;;;;;;;24.55;18.35;;;18.30;97.20;;;;;;2042105;29;20091;-72
2021/07/23 04:58:46;;;;;;;24.70;18.10;;;18.40;97.40;;;;;;2049560;28;20037;-72
2021/07/23 04:59:47;;;;;;;25.95;19.20;;;18.40;97.50;;;;;;2049768;29;20031;-72
2021/07/23 05:00:50;;;;;;;23.58;17.70;;;18.40;97.40;;;;;;2049334;29;20042;-72
2021/07/23 05:01:50;;;;;;;24.50;18.67;;;18.40;97.40;;;;;;2049755;29;20043;-71
2021/07/23 05:02:57;;;;;;;24.10;18.55;;;18.50;97.30;;;;;;2049080;29;20024;-73
2021/07/23 05:03:59;;;;;;;23.67;18.13;;;18.50;97.20;;;;;;2049173;29;20051;-75
2021/07/23 05:05:00;;;;;;;23.50;17.17;;;18.50;97.00;;;;;;2050054;29;20041;-74
2021/07/23 05:06:07;;;;;;;24.60;18.25;;;18.60;96.80;;;;;;2041704;29;20027;-74
2021/07/23 05:07:07;;;;;;;25.30;18.25;;;18.60;96.70;;;;;;2042831;29;20023;-74
2021/07/23 05:08:09;;;;;;;24.02;18.02;;;18.70;96.60;;;;;;2051092;29;20035;-74
2021/07/23 05:09:10;;;;;;;25.75;18.38;;;18.70;96.40;;;;;;2051861;28;20024;-74
2021/07/23 05:10:16;;;;;;;25.15;19.00;;;18.80;96.20;;;;;;2052072;28;20023;-74
2021/07/23 05:11:17;;;;;;;26.55;18.63;;;18.80;95.80;;;;;;2051983;29;20099;-74
2021/07/23 05:12:24;;;;;;;25.50;18.48;;;18.80;95.80;;;;;;2044724;29;20024;-74
2021/07/23 05:13:25;;;;;;;24.02;18.38;;;18.90;95.70;;;;;;2037647;29;20059;-75
2021/07/23 05:14:28;;;;;;;22.90;17.63;;;18.90;95.50;;;;;;2044930;29;20031;-74
2021/07/23 05:15:29;;;;;;;27.52;18.80;;;19.00;95.20;;;;;;2049609;29;20515;-74
2021/07/23 05:16:31;;;;;;;26.55;18.48;;;19.00;95.10;;;;;;2049949;29;20080;-74
2021/07/23 05:17:32;;;;;;;27.88;18.90;;;19.00;95.20;;;;;;2049958;29;20039;-75
2021/07/23 05:18:34;;;;;;;25.27;19.10;;;19.10;95.40;;;;;;2050377;28;20027;-74
2021/07/23 05:19:36;;;;;;;22.95;17.85;;;19.00;95.20;;;;;;2049911;28;20043;-74
2021/07/23 05:20:37;;;;;;;24.25;17.80;;;19.10;95.10;;;;;;2050705;29;20034;-75
2021/07/23 05:21:38;;;;;;;25.85;18.13;;;19.10;94.90;;;;;;2049849;29;20027;-75
2021/07/23 05:22:39;;;;;;;24.10;18.25;;;19.10;94.70;;;;;;2050188;29;20487;-74
2021/07/23 05:23:41;;;;;;;24.35;17.48;;;19.10;94.70;;;;;;2050192;29;20497;-74
2021/07/23 05:24:42;;;;;;;23.38;17.38;;;19.20;94.50;;;;;;2049939;28;20035;-73